Main page
METAR-TAF:

METAR-TAF

Airports :

Cognac – Châteaubernard Air Base

Cognac, France

latitude: 45-40N, longitude: 000-19W, elevation: 30 m

Current weather observation

The report was made 13 minutes ago, at 01:30 UTC
Wind 12 kt from the North/Northeast
Temperature 17°C
Humidity 59%
Pressure 1023 hPa
Visibility 10 km or more
no clouds below 1500 m and no cumulonimbus

METAR: LFBG 220130Z AUTO 03012KT CAVOK 17/09 Q1023

Time: 03:43 (01:43 UTC)

Forecast

The report was made 5 hours and 43 minutes ago, at 20:00 UTC
Forecast valid from 21 at 21 UTC to 22 at 21 UTC
Wind 12 kt from the North/Northeast
Visibility 10 km or more
no clouds below 1500 m and no cumulonimbus

TAF: LFBG 212000Z 2121/2221 02012KT CAVOK

Weather observations and forecasts of more than 4000 airports (METAR and TAF reports).

The available stations are represented by yellow and red dots on the map.

Hover mouse over dot to see the name of the station.

Then click to see weather observations and forecasts.

To change the map : click on the green buttons with a black cross to zoom in, on the green button with a dash to zoom out, or on the green arrows for adjacent maps.


METAR-TAF: